Buffalo Grove, Illinois
Current Conditions -  °F | °C
As of 5:52 AM on Thursday 29 Jan 2015 (Local Time) from KPWK Reporting Station
Overcast Overcast  
Wind Chill: 30°   Ceiling: 2500
Heat Index: 34°   Visibility: 10mi
Dew Point: 28°   Wind: 5mph
Humidity: 79%   Direction: 320°NW
Pressure: 29.73"   Gusts: NA
Location:  42.15°N, 87.97°W
Report Text: KPWK 291152Z 32004KT 10SM OVC025 01/M02 A2973 RMK AO2 SLP072 T00111022 10022 21006 55007
Loading
Personal Weather Stations






























Interactive Weather Map New forecast layout! Learn more

10-Day Weather Forecast

Advertisements
Track Severe Weather on mobile